Time;durP1;ratioP1;P1;durP2;ratioP2;P2;SDS_P1;SDS_P2;PMS_P1;PMS_P2;Temp;Humidity;BMP_temperature;BMP_pressure;BME280_temperature;BME280_humidity;BME280_pressure;Samples;Min_cycle;Max_cycle;Signal;HPM_P1;HPM_P2
2022/10/08 00:00:45;;;;;;;7.82;3.33;;;;;;;11.06;61.62;94675.41;5142937;27;20066;-77
2022/10/08 00:03:11;;;;;;;6.50;3.20;;;;;;;11.06;61.40;94664.75;5143035;28;20255;-78
2022/10/08 00:05:37;;;;;;;12.50;5.07;;;;;;;10.98;61.15;94668.88;5143661;27;20046;-78
2022/10/08 00:08:02;;;;;;;6.68;3.80;;;;;;;10.93;61.78;94661.00;5143632;27;20034;-77
2022/10/08 00:10:28;;;;;;;7.90;3.83;;;;;;;10.93;62.17;94665.50;5147255;27;20064;-78
2022/10/08 00:12:53;;;;;;;6.95;3.13;;;;;;;10.93;62.09;94660.19;5146977;27;20023;-77
2022/10/08 00:15:19;;;;;;;11.38;3.75;;;;;;;10.89;62.11;94660.00;5146888;27;20027;-78
2022/10/08 00:17:44;;;;;;;7.93;3.45;;;;;;;10.88;62.55;94658.41;5147091;27;20023;-78
2022/10/08 00:20:10;;;;;;;8.07;3.45;;;;;;;10.88;62.85;94661.06;5147051;27;20060;-77
2022/10/08 00:22:35;;;;;;;8.02;3.67;;;;;;;10.84;62.67;94654.75;5128658;27;20034;-78
2022/10/08 00:25:00;;;;;;;12.65;3.08;;;;;;;10.83;62.58;94655.84;5147111;27;20226;-78
2022/10/08 00:27:28;;;;;;;11.27;3.63;;;;;;;10.77;62.74;94651.69;5147069;27;20072;-78
2022/10/08 00:29:53;;;;;;;7.78;3.70;;;;;;;10.74;63.04;94641.59;5146621;27;20043;-77
2022/10/08 00:32:19;;;;;;;6.90;3.97;;;;;;;10.75;63.10;94649.31;5146855;27;20023;-78
2022/10/08 00:34:46;;;;;;;8.32;3.25;;;;;;;10.69;63.31;94642.50;5146732;27;20244;-78
2022/10/08 00:37:12;;;;;;;7.85;4.13;;;;;;;10.70;63.39;94640.59;5146666;27;20075;-78
2022/10/08 00:39:38;;;;;;;9.70;3.80;;;;;;;10.72;63.54;94641.88;5146337;27;20034;-78
2022/10/08 00:42:03;;;;;;;6.57;3.78;;;;;;;10.75;63.09;94637.88;5146549;27;20313;-78
2022/10/08 00:44:55;;;;;;;5.15;3.00;;;;;;;10.76;63.47;94642.09;5146770;27;20023;-78
2022/10/08 00:47:32;;;;;;;12.00;4.25;;;;;;;10.75;63.45;94635.19;5146154;27;20031;-78
2022/10/08 00:50:09;;;;;;;10.77;4.95;;;;;;;10.76;62.67;94634.09;5146161;27;20099;-78
2022/10/08 00:52:41;;;;;;;7.18;4.25;;;;;;;10.72;62.34;94631.22;5146089;27;20027;-75
2022/10/08 00:55:08;;;;;;;13.05;4.40;;;;;;;10.72;62.67;94628.56;5145820;27;20266;-78
2022/10/08 00:57:35;;;;;;;13.40;4.75;;;;;;;10.71;62.87;94627.00;5145850;27;20023;-78
2022/10/08 01:00:12;;;;;;;7.90;4.30;;;;;;;10.75;63.33;94624.53;5127569;27;20030;-78
2022/10/08 01:02:37;;;;;;;15.07;5.22;;;;;;;10.74;63.12;94617.59;5145557;27;20090;-77
2022/10/08 01:05:04;;;;;;;8.82;3.97;;;;;;;10.64;63.25;94614.06;5145625;27;20317;-78
2022/10/08 01:07:49;;;;;;;7.45;3.95;;;;;;;10.63;63.47;94617.00;5145603;27;20027;-78
2022/10/08 01:10:20;;;;;;;6.13;3.30;;;;;;;10.62;63.69;94618.06;5127152;27;20365;-77
2022/10/08 01:13:02;;;;;;;7.07;4.03;;;;;;;10.58;63.94;94604.56;5145379;27;20047;-79
2022/10/08 01:15:39;;;;;;;;;;;;;;;10.56;64.16;94609.41;5127723;27;20181;-79
2022/10/08 01:18:42;;;;;;;9.85;3.75;;;;;;;10.47;64.25;94600.50;5126881;27;20101;-79
2022/10/08 01:21:13;;;;;;;11.18;3.55;;;;;;;10.43;64.64;94589.63;5144620;27;20030;-79
2022/10/08 01:24:06;;;;;;;7.68;3.53;;;;;;;10.44;64.88;94595.72;5145237;27;20019;-79
2022/10/08 01:26:46;;;;;;;7.07;3.10;;;;;;;10.39;64.66;94590.50;5145163;27;20019;-79
2022/10/08 01:29:22;;;;;;;8.27;3.50;;;;;;;10.34;64.77;94585.25;5145050;27;20051;-78
2022/10/08 01:31:53;;;;;;;10.00;3.38;;;;;;;10.37;64.46;94584.69;5144798;27;20027;-79
2022/10/08 01:34:36;;;;;;;7.50;3.50;;;;;;;10.37;64.69;94579.34;5145007;27;20066;-78
2022/10/08 01:37:05;;;;;;;8.65;3.63;;;;;;;10.36;64.57;94583.91;5145010;27;20019;-79
2022/10/08 01:39:35;;;;;;;9.38;3.60;;;;;;;10.34;64.83;94574.59;5145008;27;20332;-77
2022/10/08 01:42:04;;;;;;;7.45;3.80;;;;;;;10.31;65.14;94572.53;5144886;27;20186;-78
2022/10/08 01:44:33;;;;;;;6.78;3.60;;;;;;;10.31;65.32;94567.22;5144933;27;20053;-78
2022/10/08 01:47:04;;;;;;;4.97;3.38;;;;;;;10.27;65.43;94574.19;5145057;27;20369;-78
2022/10/08 01:49:37;;;;;;;6.63;3.05;;;;;;;10.24;65.91;94568.34;5144847;27;20313;-78
2022/10/08 01:52:13;;;;;;;6.53;3.65;;;;;;;10.22;66.10;94562.53;5144456;27;20015;-79
2022/10/08 01:54:43;;;;;;;9.50;3.97;;;;;;;10.18;66.39;94569.53;5144606;27;20220;-78
2022/10/08 01:57:10;;;;;;;7.80;4.18;;;;;;;10.10;66.87;94572.84;5144466;27;20062;-78
2022/10/08 01:59:57;;;;;;;8.63;4.13;;;;;;;10.12;67.16;94572.56;5144485;27;20361;-79
2022/10/08 02:02:25;;;;;;;10.13;4.57;;;;;;;10.10;67.34;94570.19;5144534;27;20031;-78
2022/10/08 02:04:53;;;;;;;9.93;4.25;;;;;;;10.08;67.76;94575.03;5144303;27;20029;-77
2022/10/08 02:07:22;;;;;;;12.05;4.72;;;;;;;9.99;68.16;94576.75;5144317;27;20019;-78
2022/10/08 02:09:51;;;;;;;11.27;5.03;;;;;;;9.96;68.00;94580.00;5144289;27;20038;-78
2022/10/08 02:12:17;;;;;;;16.38;4.60;;;;;;;9.94;67.81;94574.19;5143923;27;20027;-78
2022/10/08 02:14:47;;;;;;;9.20;4.65;;;;;;;9.89;68.20;94579.59;5144163;27;20023;-77
2022/10/08 02:17:27;;;;;;;15.85;5.45;;;;;;;9.85;68.20;94582.06;5144144;27;20052;-77
2022/10/08 02:19:59;;;;;;;12.30;5.95;;;;;;;9.87;68.40;94579.09;5144206;27;20031;-78
2022/10/08 02:22:36;;;;;;;14.30;6.15;;;;;;;9.87;68.52;94581.75;5144030;27;20017;-78
2022/10/08 02:25:28;;;;;;;13.68;5.95;;;;;;;9.90;68.73;94581.97;5144243;27;20026;-78
2022/10/08 02:28:20;;;;;;;10.57;5.20;;;;;;;9.91;68.68;94574.75;5139949;27;20066;-78
2022/10/08 02:30:52;;;;;;;14.63;5.50;;;;;;;9.88;68.71;94572.69;5143816;27;20035;-78
2022/10/08 02:33:25;;;;;;;10.77;5.80;;;;;;;9.91;68.72;94574.75;5143726;27;20038;-78
2022/10/08 02:35:54;;;;;;;12.02;5.82;;;;;;;9.88;68.64;94578.78;5143879;27;20039;-79
2022/10/08 02:38:26;;;;;;;11.90;5.10;;;;;;;9.92;68.80;94573.69;5143806;27;20072;-79
2022/10/08 02:40:56;;;;;;;15.73;5.55;;;;;;;9.84;69.26;94578.59;5143895;27;20031;-79
2022/10/08 02:43:29;;;;;;;12.05;5.75;;;;;;;9.88;68.73;94572.69;5143929;27;20027;-78
2022/10/08 02:46:11;;;;;;;11.77;5.80;;;;;;;9.87;69.06;94576.41;5143494;27;20023;-79
2022/10/08 02:48:41;;;;;;;14.48;6.15;;;;;;;9.82;69.10;94566.66;5143857;27;20019;-78
2022/10/08 02:51:12;;;;;;;14.00;5.35;;;;;;;9.80;69.38;94569.59;5143509;27;20026;-80
2022/10/08 02:53:39;;;;;;;11.00;5.53;;;;;;;9.78;69.28;94569.09;5143735;27;20030;-80
2022/10/08 02:56:16;;;;;;;10.40;5.70;;;;;;;9.79;69.30;94570.69;5143348;27;20019;-80
2022/10/08 02:58:42;;;;;;;8.65;4.78;;;;;;;9.78;69.41;94568.31;5143565;27;20372;-80
2022/10/08 03:01:30;;;;;;;14.65;5.30;;;;;;;9.75;69.47;94567.03;5143614;27;20065;-79
2022/10/08 03:04:04;;;;;;;7.88;5.13;;;;;;;9.71;69.52;94567.88;5143509;27;20019;-79
2022/10/08 03:06:31;;;;;;;9.35;5.38;;;;;;;9.67;69.53;94572.19;5143785;28;20030;-79
2022/10/08 03:08:59;;;;;;;11.80;5.22;;;;;;;9.66;69.87;94575.94;5143538;27;20019;-78
2022/10/08 03:11:27;;;;;;;8.80;5.55;;;;;;;9.63;69.89;94567.47;5143327;27;20019;-77
2022/10/08 03:13:57;;;;;;;16.42;6.18;;;;;;;9.60;70.13;94561.91;5143439;27;20031;-79
2022/10/08 03:16:26;;;;;;;10.77;5.35;;;;;;;9.63;70.03;94567.47;5143477;28;20015;-78
2022/10/08 03:18:52;;;;;;;9.65;5.50;;;;;;;9.60;70.17;94567.25;5143501;27;20054;-78
2022/10/08 03:21:19;;;;;;;16.33;6.35;;;;;;;9.56;70.25;94568.91;5143295;28;20216;-78
2022/10/08 03:23:44;;;;;;;10.27;6.00;;;;;;;9.51;70.73;94563.66;5143224;28;20030;-78
2022/10/08 03:26:10;;;;;;;8.05;5.32;;;;;;;9.50;70.79;94562.06;5143409;28;20251;-78
2022/10/08 03:28:35;;;;;;;10.65;6.07;;;;;;;9.48;70.95;94566.88;5143161;27;20019;-78
2022/10/08 03:31:05;;;;;;;13.38;5.93;;;;;;;9.50;70.76;94564.72;5143225;28;20026;-78
2022/10/08 03:33:32;;;;;;;14.20;6.13;;;;;;;9.46;71.07;94555.75;5143203;27;20339;-77
2022/10/08 03:35:57;;;;;;;11.55;6.25;;;;;;;9.47;70.62;94562.66;5143437;27;20062;-78
2022/10/08 03:38:23;;;;;;;11.30;5.25;;;;;;;9.43;71.02;94557.91;5143321;28;20023;-78
2022/10/08 03:40:57;;;;;;;9.15;5.05;;;;;;;9.39;71.18;94567.53;5143193;28;20023;-78
2022/10/08 03:43:22;;;;;;;13.35;5.88;;;;;;;9.33;71.28;94550.06;5143784;27;20244;-77
2022/10/08 03:45:52;;;;;;;11.68;6.07;;;;;;;9.31;71.69;94554.88;5147254;27;20019;-77
2022/10/08 03:48:19;;;;;;;13.07;6.88;;;;;;;9.29;71.72;94551.72;5147063;27;20026;-78
2022/10/08 03:50:53;;;;;;;19.50;5.60;;;;;;;9.27;71.74;94553.88;5146972;27;20049;-79
2022/10/08 03:53:20;;;;;;;10.23;5.55;;;;;;;9.23;72.02;94547.56;5146877;27;20090;-77
2022/10/08 03:55:45;;;;;;;13.13;6.78;;;;;;;9.21;72.08;94550.50;5146902;27;20061;-78
2022/10/08 03:58:11;;;;;;;9.00;6.05;;;;;;;9.19;72.09;94557.19;5147318;27;20027;-78
2022/10/08 04:00:36;;;;;;;9.73;5.30;;;;;;;9.17;72.24;94559.34;5147041;27;20027;-78
2022/10/08 04:03:02;;;;;;;12.95;5.82;;;;;;;9.16;72.29;94553.22;5146523;27;20228;-78
2022/10/08 04:05:27;;;;;;;10.23;5.88;;;;;;;9.15;72.39;94553.50;5147042;27;20089;-78
2022/10/08 04:07:53;;;;;;;16.63;6.25;;;;;;;9.13;72.42;94553.78;5146770;27;20030;-78
2022/10/08 04:10:18;;;;;;;12.25;6.38;;;;;;;9.11;72.93;94555.16;5146688;27;20274;-78
2022/10/08 04:12:43;;;;;;;12.73;6.10;;;;;;;9.13;72.73;94558.31;5146504;27;20194;-79
2022/10/08 04:15:09;;;;;;;10.70;5.22;;;;;;;9.11;72.83;94555.94;5146286;27;20038;-78
2022/10/08 04:17:34;;;;;;;12.30;6.43;;;;;;;9.12;72.56;94551.41;5146619;27;20378;-78
2022/10/08 04:20:00;;;;;;;11.50;5.72;;;;;;;9.12;72.52;94557.53;5146739;27;20370;-78
2022/10/08 04:22:25;;;;;;;8.25;5.18;;;;;;;9.11;72.27;94549.84;5146403;27;20019;-78
2022/10/08 04:24:51;;;;;;;13.50;4.82;;;;;;;9.08;72.57;94561.03;5127878;27;20039;-78
2022/10/08 04:27:16;;;;;;;9.40;4.88;;;;;;;9.08;72.45;94555.72;5146283;27;20050;-78
2022/10/08 04:29:41;;;;;;;11.40;5.43;;;;;;;9.08;72.49;94553.06;5146501;27;20111;-78
2022/10/08 04:32:07;;;;;;;20.75;6.00;;;;;;;9.07;72.57;94554.94;5146143;27;20027;-78
2022/10/08 04:34:32;;;;;;;9.32;5.45;;;;;;;9.07;72.72;94552.28;5146095;27;20279;-79
2022/10/08 04:36:58;;;;;;;12.68;5.85;;;;;;;9.07;72.76;94557.59;5146193;27;20251;-78
2022/10/08 04:39:23;;;;;;;9.18;6.07;;;;;;;9.08;73.07;94545.09;5145987;27;20023;-78
2022/10/08 04:41:49;;;;;;;9.18;5.60;;;;;;;9.08;72.88;94545.91;5145971;27;20248;-79
2022/10/08 04:44:14;;;;;;;11.60;5.88;;;;;;;9.08;72.96;94553.88;5146021;27;20091;-78
2022/10/08 04:46:40;;;;;;;9.98;5.25;;;;;;;9.06;72.93;94557.88;5146441;27;20027;-78
2022/10/08 04:49:05;;;;;;;13.52;6.30;;;;;;;9.03;73.29;94554.72;5127543;27;20106;-77
2022/10/08 04:51:30;;;;;;;11.32;5.60;;;;;;;9.04;73.34;94556.31;5146186;27;20084;-78
2022/10/08 04:53:57;;;;;;;20.13;6.20;;;;;;;9.03;73.41;94559.25;5146182;27;20038;-78
2022/10/08 04:56:25;;;;;;;12.50;6.18;;;;;;;9.05;73.57;94557.09;5144744;27;20019;-79
2022/10/08 04:58:53;;;;;;;14.70;7.32;;;;;;;9.03;73.67;94562.69;5146075;27;20042;-77
2022/10/08 05:01:20;;;;;;;18.92;8.32;;;;;;;9.09;73.81;94554.66;5146024;27;20093;-78
2022/10/08 05:03:50;;;;;;;19.00;8.80;;;;;;;9.09;73.82;94563.41;5145662;27;20027;-78
2022/10/08 05:06:19;;;;;;;11.93;5.82;;;;;;;9.09;73.90;94558.09;5145445;27;20027;-78
2022/10/08 05:08:45;;;;;;;15.32;7.80;;;;;;;9.11;74.29;94555.16;5145179;27;20019;-77
2022/10/08 05:11:12;;;;;;;15.75;6.25;;;;;;;9.12;74.10;94562.88;5145195;27;20070;-78
2022/10/08 05:13:38;;;;;;;11.00;6.55;;;;;;;9.13;74.05;94553.00;5145545;27;20047;-78
2022/10/08 05:16:05;;;;;;;11.75;6.80;;;;;;;9.19;73.93;94559.84;5145393;27;20035;-78
2022/10/08 05:18:32;;;;;;;19.00;7.28;;;;;;;9.20;73.99;94558.78;5145257;27;20347;-77
2022/10/08 05:21:06;;;;;;;15.00;8.43;;;;;;;9.20;73.99;94556.13;5145372;27;20019;-77
2022/10/08 05:23:32;;;;;;;19.10;7.15;;;;;;;9.24;73.76;94559.78;5145399;27;20019;-78
2022/10/08 05:25:57;;;;;;;12.75;6.75;;;;;;;9.25;74.04;94566.69;5145204;27;20262;-78
2022/10/08 05:28:23;;;;;;;15.73;7.28;;;;;;;9.27;74.06;94569.06;5144881;27;20030;-78
2022/10/08 05:30:48;;;;;;;19.58;7.72;;;;;;;9.29;74.11;94561.56;5144951;27;20039;-78
2022/10/08 05:33:13;;;;;;;23.02;11.30;;;;;;;9.33;74.15;94568.69;5144765;27;20057;-78
2022/10/08 05:35:39;;;;;;;21.10;10.13;;;;;;;9.35;74.02;94566.53;5144918;27;20320;-78
2022/10/08 05:38:04;;;;;;;16.88;10.35;;;;;;;9.41;74.24;94568.03;5144695;27;20019;-78
2022/10/08 05:40:30;;;;;;;17.13;8.85;;;;;;;9.49;73.97;94560.50;5144883;27;20027;-79
2022/10/08 05:42:56;;;;;;;14.77;8.73;;;;;;;9.61;73.77;94566.97;5144692;27;20015;-80
2022/10/08 05:45:22;;;;;;;14.45;8.68;;;;;;;9.73;73.45;94563.06;5144795;27;20023;-80
2022/10/08 05:47:48;;;;;;;18.85;9.38;;;;;;;9.86;73.14;94574.84;5144556;27;20376;-80
2022/10/08 05:50:14;;;;;;;16.23;8.90;;;;;;;9.96;72.94;94574.69;5144510;27;20068;-78
2022/10/08 05:52:40;;;;;;;22.92;9.10;;;;;;;10.05;72.73;94567.59;5144411;27;20084;-77
2022/10/08 05:55:06;;;;;;;22.90;9.90;;;;;;;10.15;72.28;94566.66;5144449;27;20277;-77
2022/10/08 05:57:31;;;;;;;23.15;9.13;;;;;;;10.24;71.53;94560.34;5144661;27;20022;-77
2022/10/08 05:59:57;;;;;;;26.65;9.93;;;;;;;10.35;71.00;94561.00;5144352;27;20072;-77
2022/10/08 06:02:22;;;;;;;20.17;8.73;;;;;;;10.43;70.13;94567.53;5144546;27;20396;-77
2022/10/08 06:04:48;;;;;;;18.33;8.30;;;;;;;10.44;70.66;94563.75;5144567;27;20086;-77
2022/10/08 06:07:14;;;;;;;27.50;8.85;;;;;;;10.47;70.20;94568.50;5143975;27;20019;-77
2022/10/08 06:09:39;;;;;;;15.30;7.93;;;;;;;10.55;70.29;94573.16;5144333;27;20040;-77
2022/10/08 06:12:07;;;;;;;18.25;8.00;;;;;;;10.66;69.67;94564.97;5144170;27;20026;-79
2022/10/08 06:14:33;;;;;;;17.83;6.78;;;;;;;10.73;69.65;94568.84;5144575;27;20213;-79
2022/10/08 06:16:58;;;;;;;24.23;7.55;;;;;;;10.77;69.58;94561.03;5144294;27;20046;-79
2022/10/08 06:19:24;;;;;;;16.15;7.45;;;;;;;10.79;69.62;94566.88;5144015;27;20023;-77
2022/10/08 06:21:49;;;;;;;17.65;8.30;;;;;;;10.91;69.38;94575.16;5144153;27;20042;-77
2022/10/08 06:24:15;;;;;;;15.15;7.88;;;;;;;10.98;69.54;94567.53;5144037;27;20085;-78
2022/10/08 06:26:42;;;;;;;19.45;8.23;;;;;;;11.05;69.64;94572.44;5144006;27;20022;-78
2022/10/08 06:29:12;;;;;;;20.23;8.35;;;;;;;11.11;69.63;94570.47;5143888;27;20110;-79
2022/10/08 06:31:37;;;;;;;20.02;8.98;;;;;;;11.08;69.29;94566.53;5143895;27;20340;-77
2022/10/08 06:34:03;;;;;;;24.83;8.90;;;;;;;11.14;69.65;94567.22;5144044;27;20019;-77
2022/10/08 06:36:29;;;;;;;14.98;8.90;;;;;;;11.18;69.56;94569.00;5143991;27;20086;-77
2022/10/08 06:38:57;;;;;;;16.67;9.07;;;;;;;11.20;69.63;94569.47;5143755;27;20030;-76
2022/10/08 06:41:23;;;;;;;14.68;8.65;;;;;;;11.29;69.50;94566.88;5144000;27;20015;-76
2022/10/08 06:43:49;;;;;;;18.40;9.07;;;;;;;11.38;69.10;94570.44;5143779;27;20212;-76
2022/10/08 06:46:14;;;;;;;17.80;9.10;;;;;;;11.43;69.15;94570.31;5143723;27;20027;-76
2022/10/08 06:48:40;;;;;;;16.63;9.55;;;;;;;11.49;68.90;94568.34;5143727;27;20031;-76
2022/10/08 06:51:11;;;;;;;16.30;8.40;;;;;;;11.60;68.22;94558.19;5143790;27;20208;-77
2022/10/08 06:53:36;;;;;;;30.67;9.13;;;;;;;11.65;67.87;94558.88;5143917;27;20019;-77
2022/10/08 06:56:05;;;;;;;23.25;9.05;;;;;;;11.70;67.74;94555.31;5143993;27;20038;-77
2022/10/08 06:58:30;;;;;;;22.98;9.48;;;;;;;11.80;67.03;94565.75;5143644;27;20015;-77
2022/10/08 07:01:05;;;;;;;22.42;9.75;;;;;;;11.86;67.07;94563.75;5143592;27;20026;-77
2022/10/08 07:03:31;;;;;;;27.60;11.00;;;;;;;11.92;66.89;94567.91;5143665;27;20031;-79
2022/10/08 07:06:04;;;;;;;24.92;9.48;;;;;;;12.06;66.60;94567.06;5143486;28;20054;-76
2022/10/08 07:08:30;;;;;;;16.85;9.73;;;;;;;12.18;65.38;94561.94;5143481;28;20023;-77
2022/10/08 07:11:07;;;;;;;21.88;9.30;;;;;;;12.19;65.33;94572.34;5143343;27;20023;-78
2022/10/08 07:13:34;;;;;;;27.88;10.43;;;;;;;12.27;65.12;94570.78;5159583;27;20023;-77
2022/10/08 07:16:04;;;;;;;27.20;11.27;;;;;;;12.25;65.26;94570.31;5143661;28;20249;-76
2022/10/08 07:18:30;;;;;;;19.80;9.82;;;;;;;12.36;65.01;94570.88;5144515;27;20023;-76
2022/10/08 07:20:56;;;;;;;26.00;10.60;;;;;;;12.38;64.87;94564.09;5147463;27;20031;-76
2022/10/08 07:23:21;;;;;;;20.17;11.10;;;;;;;12.46;64.85;94565.25;5147543;27;20061;-76
2022/10/08 07:26:04;;;;;;;29.77;10.25;;;;;;;12.60;64.44;94560.59;5147416;27;20027;-77
2022/10/08 07:28:32;;;;;;;21.23;11.02;;;;;;;12.71;63.94;94571.03;5129055;27;20282;-77
2022/10/08 07:31:15;;;;;;;20.48;9.60;;;;;;;12.65;64.89;94565.81;5147495;27;20056;-76
2022/10/08 07:33:41;;;;;;;18.63;9.57;;;;;;;12.62;64.60;94569.09;5147671;27;20027;-86
2022/10/08 07:36:14;;;;;;;21.25;10.60;;;;;;;12.78;65.88;94566.00;5147726;27;20268;-86
2022/10/08 07:38:41;;;;;;;18.58;10.13;;;;;;;12.86;64.55;94562.56;5147917;27;20040;-84
2022/10/08 07:41:08;;;;;;;16.67;10.07;;;;;;;12.91;64.41;94554.41;5148338;27;20054;-84
2022/10/08 07:43:34;;;;;;;20.75;10.70;;;;;;;13.00;64.13;94557.88;5148551;27;20054;-84
2022/10/08 07:46:00;;;;;;;27.33;10.40;;;;;;;13.10;63.58;94558.72;5148236;27;20026;-85
2022/10/08 07:48:27;;;;;;;17.90;9.50;;;;;;;13.18;63.69;94552.59;5148313;27;20027;-84
2022/10/08 07:50:53;;;;;;;22.58;10.02;;;;;;;13.30;64.17;94563.50;5148285;27;20025;-84
2022/10/08 07:53:18;;;;;;;21.40;10.00;;;;;;;13.40;63.16;94557.84;5148099;27;20344;-84
2022/10/08 07:55:44;;;;;;;27.20;10.27;;;;;;;13.44;62.60;94550.00;5148309;27;20019;-84
2022/10/08 07:58:09;;;;;;;23.98;9.38;;;;;;;13.54;63.20;94554.25;5148260;27;20019;-84
2022/10/08 08:00:37;;;;;;;25.48;11.57;;;;;;;13.64;62.77;94544.00;5148258;27;20019;-84
2022/10/08 08:03:03;;;;;;;20.23;10.63;;;;;;;13.74;62.99;94542.91;5129933;27;20023;-84
2022/10/08 08:05:32;;;;;;;23.95;9.10;;;;;;;13.80;61.84;94552.38;5129865;27;20031;-84
2022/10/08 08:07:58;;;;;;;31.35;10.88;;;;;;;13.91;61.63;94550.13;5148590;27;20027;-84
2022/10/08 08:10:23;;;;;;;16.92;10.07;;;;;;;14.01;61.36;94541.78;5147810;27;20035;-85
2022/10/08 08:12:49;;;;;;;24.65;9.80;;;;;;;14.11;61.38;94546.03;5147672;27;20317;-83
2022/10/08 08:15:14;;;;;;;24.83;10.18;;;;;;;14.23;61.16;94546.16;5147643;27;20019;-85
2022/10/08 08:17:40;;;;;;;19.98;10.05;;;;;;;14.32;60.43;94545.34;5147346;27;20079;-84
2022/10/08 08:20:05;;;;;;;26.60;11.15;;;;;;;14.48;59.57;94546.41;5147754;27;20225;-82
2022/10/08 08:22:31;;;;;;;27.70;10.40;;;;;;;14.59;59.34;94546.84;5147342;27;20324;-82
2022/10/08 08:24:56;;;;;;;14.25;8.65;;;;;;;14.70;59.29;94539.25;5146815;27;20091;-81
2022/10/08 08:27:22;;;;;;;29.23;11.55;;;;;;;14.83;59.02;94543.63;5147342;27;20023;-83
2022/10/08 08:29:47;;;;;;;23.48;8.82;;;;;;;14.98;58.28;94540.41;5146926;27;20054;-83
2022/10/08 08:32:14;;;;;;;21.27;9.48;;;;;;;15.11;58.00;94532.44;5147343;27;20023;-83
2022/10/08 08:34:39;;;;;;;18.85;9.35;;;;;;;15.22;57.90;94534.41;5147204;27;20023;-84
2022/10/08 08:37:05;;;;;;;13.38;7.07;;;;;;;15.36;57.14;94539.53;5147406;27;20364;-84
2022/10/08 08:39:31;;;;;;;26.80;8.40;;;;;;;15.49;56.31;94532.34;5147353;27;20068;-84
2022/10/08 08:42:32;;;;;;;18.63;6.65;;;;;;;15.66;55.23;94526.03;5147496;27;20031;-88
2022/10/08 08:45:08;;;;;;;13.48;6.32;;;;;;;15.74;54.34;94525.22;5102739;27;20054;-85
2022/10/08 08:47:41;;;;;;;21.55;7.68;;;;;;;15.85;55.25;94512.16;5147145;27;20050;-84
2022/10/08 08:50:23;;;;;;;12.93;4.90;;;;;;;15.96;53.93;94523.28;5147071;27;20094;-86
2022/10/08 08:52:50;;;;;;;14.57;4.63;;;;;;;16.07;51.86;94523.66;5146370;27;20046;-84
2022/10/08 08:55:25;;;;;;;23.60;6.05;;;;;;;16.16;52.08;94519.78;5146867;27;20038;-85
2022/10/08 08:57:57;;;;;;;10.30;4.53;;;;;;;16.22;50.90;94515.75;5146312;27;20018;-85
2022/10/08 09:00:28;;;;;;;;;;;;;;;16.30;51.49;94515.97;5128415;27;20344;-85
2022/10/08 09:02:59;;;;;;;17.25;4.32;;;;;;;16.33;50.87;94513.41;5128349;27;20131;-85
2022/10/08 09:05:27;;;;;;;9.27;3.83;;;;;;;16.41;49.17;94511.75;5146460;27;20022;-84
2022/10/08 09:07:57;;;;;;;7.80;4.05;;;;;;;16.48;49.53;94511.22;5146368;27;20351;-84
2022/10/08 09:10:48;;;;;;;8.90;4.05;;;;;;;16.56;49.37;94513.78;5146446;27;20060;-84
2022/10/08 09:13:21;;;;;;;8.35;3.50;;;;;;;16.64;47.33;94504.81;5131415;27;20042;-84
2022/10/08 09:15:46;;;;;;;10.35;4.60;;;;;;;16.72;48.34;94513.13;5146377;27;20015;-83
2022/10/08 09:18:16;;;;;;;8.00;3.65;;;;;;;16.77;48.26;94502.13;5146643;27;20212;-83
2022/10/08 09:20:41;;;;;;;9.70;3.78;;;;;;;16.87;47.48;94500.94;5146107;27;20036;-83
2022/10/08 09:23:23;;;;;;;6.60;3.97;;;;;;;16.94;46.63;94496.56;5127759;27;20027;-83
2022/10/08 09:26:02;;;;;;;11.32;4.47;;;;;;;16.97;47.58;94501.25;5146366;27;20049;-82
2022/10/08 09:28:42;;;;;;;11.73;4.78;;;;;;;17.07;47.37;94494.66;5145740;27;20030;-83
2022/10/08 09:31:29;;;;;;;13.73;3.42;;;;;;;17.03;44.87;94491.06;5145388;27;20089;-83
2022/10/08 09:34:16;;;;;;;4.80;2.90;;;;;;;16.91;44.71;94486.47;5145370;27;20023;-83
2022/10/08 09:36:49;;;;;;;6.85;3.13;;;;;;;16.94;45.71;94485.03;5145547;27;20126;-85
2022/10/08 09:39:20;;;;;;;6.07;3.30;;;;;;;16.98;45.92;94473.22;5145238;27;20035;-83
2022/10/08 09:42:02;;;;;;;12.90;3.20;;;;;;;16.98;45.94;94475.91;5144751;27;20042;-84
2022/10/08 09:44:37;;;;;;;5.95;3.53;;;;;;;16.98;45.49;94480.53;5145140;27;20039;-84
2022/10/08 09:47:05;;;;;;;6.35;3.45;;;;;;;16.96;46.96;94472.00;5145323;27;20047;-84
2022/10/08 09:49:33;;;;;;;8.65;3.40;;;;;;;17.05;46.25;94465.34;5144821;27;20090;-84
2022/10/08 09:52:03;;;;;;;9.93;3.90;;;;;;;17.13;46.56;94465.56;5145164;27;20041;-83
2022/10/08 09:54:41;;;;;;;8.77;4.03;;;;;;;17.29;46.45;94462.97;5144943;27;20063;-84
2022/10/08 09:57:07;;;;;;;8.50;4.05;;;;;;;17.44;46.00;94460.34;5145575;27;20244;-83
2022/10/08 09:59:40;;;;;;;8.68;3.20;;;;;;;17.61;45.25;94461.97;5145473;27;20019;-85
2022/10/08 10:02:31;;;;;;;5.85;3.35;;;;;;;17.77;43.67;94455.84;5145195;27;20026;-83
2022/10/08 10:04:58;;;;;;;8.38;3.65;;;;;;;17.84;43.85;94456.06;5144533;27;20011;-84
2022/10/08 10:07:55;;;;;;;8.18;3.35;;;;;;;17.91;43.23;94458.16;5144732;27;20317;-84
2022/10/08 10:10:43;;;;;;;6.93;3.53;;;;;;;18.02;43.83;94462.72;5126736;27;20030;-87
2022/10/08 10:13:20;;;;;;;6.60;3.30;;;;;;;18.04;42.37;94449.66;5145620;27;20027;-85
2022/10/08 10:16:32;;;;;;;5.85;3.35;;;;;;;18.03;42.86;94441.91;5145280;27;20062;-86
2022/10/08 10:19:02;;;;;;;6.45;3.95;;;;;;;17.98;43.44;94436.78;5139252;27;20550;-81
2022/10/08 10:21:39;;;;;;;9.35;3.95;;;;;;;17.83;42.98;94433.72;5142499;27;20377;-80
2022/10/08 10:24:17;;;;;;;12.02;3.78;;;;;;;18.01;43.74;94428.78;5142089;27;20023;-78
2022/10/08 10:26:43;;;;;;;9.40;3.13;;;;;;;18.17;43.61;94426.09;5143454;27;20041;-83
2022/10/08 10:29:19;;;;;;;11.55;3.28;;;;;;;18.30;43.36;94428.72;5142480;27;20053;-86
2022/10/08 10:32:08;;;;;;;7.20;3.28;;;;;;;18.45;43.29;94427.94;5146989;27;20027;-95
2022/10/08 10:34:38;;;;;;;4.38;2.92;;;;;;;18.58;42.23;94418.63;5150055;27;20094;-91
2022/10/08 10:37:12;;;;;;;10.20;2.92;;;;;;;18.67;39.52;94418.44;5151256;27;20026;-94
2022/10/08 10:40:28;;;;;;;5.60;3.10;;;;;;;18.60;39.48;94416.34;5134743;27;20031;-95
2022/10/08 10:43:11;;;;;;;9.88;3.72;;;;;;;18.56;40.40;94418.19;5099680;27;20031;-95
2022/10/08 10:45:38;;;;;;;;;;;;;;;18.45;40.55;94411.75;5152542;27;20027;-95
2022/10/08 10:48:06;;;;;;;10.23;3.78;;;;;;;18.48;40.38;94407.56;5151346;27;19904;-96
2022/10/08 10:50:44;;;;;;;7.90;3.20;;;;;;;18.45;39.42;94398.25;5153046;27;20071;-96
2022/10/08 10:53:13;;;;;;;8.20;3.33;;;;;;;18.62;38.62;94389.00;5156029;27;20011;-94
2022/10/08 10:58:44;;;;;;;6.97;3.25;;;;;;;18.57;41.41;94387.34;6097950;22;20784;-91
2022/10/08 11:01:51;;;;;;;10.60;3.17;;;;;;;18.69;39.81;94391.09;5239167;22;20120;-86
2022/10/08 11:04:35;;;;;;;12.48;3.50;;;;;;;18.72;40.01;94376.88;4992754;28;20208;-85
2022/10/08 11:07:02;;;;;;;10.25;3.95;;;;;;;18.88;39.68;94366.84;5041300;28;20161;-85
2022/10/08 11:09:43;;;;;;;11.05;2.97;;;;;;;19.04;40.08;94362.16;5041689;28;20032;-84
2022/10/08 11:12:34;;;;;;;8.38;2.83;;;;;;;19.26;39.39;94368.03;5042872;28;20056;-85
2022/10/08 11:15:35;;;;;;;15.40;3.03;;;;;;;19.37;38.63;94366.28;5042505;28;20021;-85
2022/10/08 11:18:23;;;;;;;9.93;3.33;;;;;;;19.39;38.34;94364.00;5042902;28;20048;-85
2022/10/08 11:21:02;;;;;;;7.18;3.03;;;;;;;19.29;38.44;94347.59;5042927;28;20018;-85
2022/10/08 11:23:30;;;;;;;8.57;3.10;;;;;;;19.23;38.75;94355.19;5042667;28;20026;-85
2022/10/08 11:26:14;;;;;;;14.55;3.92;;;;;;;19.27;38.25;94350.66;5042763;28;20223;-85
2022/10/08 11:28:56;;;;;;;8.35;2.88;;;;;;;19.36;38.71;94343.13;5042624;28;20025;-85
2022/10/08 11:31:41;;;;;;;6.88;3.75;;;;;;;19.38;38.19;94342.78;5042618;28;20021;-85
2022/10/08 11:34:21;;;;;;;10.48;3.72;;;;;;;19.58;39.97;94338.09;5042489;28;20049;-85
2022/10/08 11:37:18;;;;;;;12.57;3.28;;;;;;;19.74;39.79;94332.63;5042671;28;20025;-85
2022/10/08 11:39:46;;;;;;;8.10;3.40;;;;;;;19.89;38.45;94330.97;5042480;28;20037;-85
2022/10/08 11:42:20;;;;;;;12.30;3.10;;;;;;;20.07;38.12;94325.84;5042550;28;20084;-84
2022/10/08 11:44:46;;;;;;;10.20;3.15;;;;;;;20.17;38.05;94325.22;5042553;28;20036;-85
2022/10/08 11:47:34;;;;;;;7.93;3.28;;;;;;;20.16;36.68;94319.03;5042504;28;20096;-85
2022/10/08 11:50:01;;;;;;;10.05;3.60;;;;;;;20.31;37.80;94319.25;5042369;28;20201;-85
2022/10/08 11:52:31;;;;;;;10.13;3.38;;;;;;;20.43;36.89;94316.34;5042452;28;20029;-85